Terminal Aerodrome Forecast
Issued by NWS

Home | Current Version | Previous Version | Text Only | Print | Product List | Glossary On
Versions: 1 2 3 4 5 6 7 8 9 10 11 12 13 14 15 16 17 18 19 20 21 22 23 24 25 26 27 28 29 30 31 32
000
FTUS42 KILM 271200 CCA
TAFCRE
TAF COR
KCRE 271206Z 2712/2812 00000KT 3SM BR BKN200
     FM271330 01007KT P6SM BKN250
     FM271800 02009KT P6SM SCT040
     FM280200 04008KT P6SM SCT025 SCT200=

USA.gov is the U.S. government's official web portal to all federal, state and local government web resources and services.